Time,TemperatureF,DewpointF,PressureIn,WindDirection,WindDirectionDegrees,WindSpeedMPH,WindSpeedGustMPH,Humidity,HourlyPrecipIn,Conditions,Clouds,dailyrainin,SolarRadiationWatts/m^2,SoftwareType,DateUTC
2013-08-29 00:01:00,60.0,60.0,-100.00,NW,306,5.0,11.0,99,0.00,,,0.00,0.000000,,2013-08-29 07:01:00,
2013-08-29 00:12:00,60.0,60.0,-100.00,NW,306,5.0,11.0,99,0.00,,,0.00,0.000000,,2013-08-29 07:12:00,
2013-08-29 00:21:00,60.0,60.0,-100.00,NW,306,5.0,11.0,99,0.00,,,0.00,0.000000,,2013-08-29 07:21:00,
2013-08-29 00:53:00,59.0,59.0,-100.00,WNW,282,3.0,10.0,99,0.00,,,0.00,0.000000,,2013-08-29 07:53:00,
2013-08-29 01:02:00,59.0,59.0,-100.00,WNW,282,3.0,10.0,99,0.00,,,0.00,0.000000,,2013-08-29 08:02:00,
2013-08-29 01:12:00,59.0,59.0,-100.00,WNW,282,3.0,10.0,99,0.00,,,0.00,0.000000,,2013-08-29 08:12:00,
2013-08-29 01:22:00,59.0,59.0,-100.00,WNW,282,3.0,10.0,99,0.00,,,0.00,0.000000,,2013-08-29 08:22:00,
2013-08-29 01:52:00,59.0,59.0,-100.00,SE,125,0.0,9.0,100,0.00,,,0.00,0.000000,,2013-08-29 08:52:00,
2013-08-29 02:01:00,59.0,59.0,-100.00,SE,125,0.0,9.0,100,0.00,,,0.00,0.000000,,2013-08-29 09:01:00,
2013-08-29 02:12:00,59.0,59.0,-100.00,SE,125,0.0,9.0,100,0.00,,,0.00,0.000000,,2013-08-29 09:12:00,
2013-08-29 02:21:00,59.0,59.0,-100.00,SE,125,0.0,9.0,100,0.00,,,0.00,0.000000,,2013-08-29 09:21:00,
2013-08-29 03:53:00,58.0,58.0,-100.00,NE,49,0.0,7.0,100,-99.99,,,0.00,0.000000,,2013-08-29 10:53:00,
2013-08-29 04:03:00,58.0,58.0,-100.00,NE,49,0.0,7.0,100,-99.99,,,0.00,0.000000,,2013-08-29 11:03:00,
2013-08-29 04:12:00,58.0,58.0,-100.00,NE,49,0.0,7.0,100,-99.99,,,0.00,0.000000,,2013-08-29 11:12:00,
2013-08-29 04:22:00,58.0,58.0,-100.00,NE,49,0.0,7.0,100,-99.99,,,0.00,0.000000,,2013-08-29 11:22:00,
2013-08-29 04:52:00,58.0,58.0,-100.00,WSW,258,2.0,10.0,100,0.00,,,0.00,0.000000,,2013-08-29 11:52:00,
2013-08-29 05:02:00,58.0,58.0,-100.00,WSW,258,2.0,10.0,100,0.00,,,0.00,0.000000,,2013-08-29 12:02:00,
2013-08-29 05:11:00,58.0,58.0,-100.00,WSW,258,2.0,10.0,100,0.00,,,0.00,0.000000,,2013-08-29 12:11:00,
2013-08-29 05:22:00,58.0,58.0,-100.00,WSW,258,2.0,10.0,100,0.00,,,0.00,0.000000,,2013-08-29 12:22:00,
2013-08-29 05:52:00,58.0,58.0,-100.00,West,272,1.0,-999.0,100,0.00,,,0.00,,,2013-08-29 12:52:00,
2013-08-29 06:02:00,58.0,58.0,-100.00,West,272,1.0,-999.0,100,0.00,,,0.00,,,2013-08-29 13:02:00,
2013-08-29 06:12:00,58.0,58.0,-100.00,West,272,1.0,-999.0,100,0.00,,,0.00,,,2013-08-29 13:12:00,
2013-08-29 06:22:00,58.0,58.0,-100.00,West,272,1.0,-999.0,100,0.00,,,0.00,,,2013-08-29 13:22:00,
2013-08-29 07:52:00,59.0,59.0,-100.00,SSW,201,0.0,4.0,100,-99.99,,,0.00,21.000000,,2013-08-29 14:52:00,
2013-08-29 08:02:00,59.0,59.0,-100.00,SSW,201,0.0,4.0,100,-99.99,,,0.00,21.000000,,2013-08-29 15:02:00,
2013-08-29 08:12:00,59.0,59.0,-100.00,SSW,201,0.0,4.0,100,-99.99,,,0.00,21.000000,,2013-08-29 15:12:00,
2013-08-29 08:21:00,59.0,59.0,-100.00,SSW,201,0.0,4.0,100,-99.99,,,0.00,21.000000,,2013-08-29 15:21:00,
2013-08-29 08:53:00,60.0,60.0,-100.00,NW,315,1.0,5.0,99,0.00,,,0.00,93.000000,,2013-08-29 15:53:00,
2013-08-29 09:04:00,60.0,60.0,-100.00,NW,315,1.0,5.0,99,0.00,,,0.00,93.000000,,2013-08-29 16:04:00,
2013-08-29 09:13:00,60.0,60.0,-100.00,NW,315,1.0,5.0,99,0.00,,,0.00,93.000000,,2013-08-29 16:13:00,
2013-08-29 09:24:00,60.0,60.0,-100.00,NW,315,1.0,5.0,99,0.00,,,0.00,93.000000,,2013-08-29 16:24:00,
2013-08-29 09:54:00,63.0,62.0,-100.00,NW,308,5.0,9.0,95,0.00,,,0.00,209.000000,,2013-08-29 16:54:00,
2013-08-29 10:03:00,63.0,62.0,-100.00,NW,308,5.0,9.0,95,0.00,,,0.00,209.000000,,2013-08-29 17:03:00,
2013-08-29 10:13:00,63.0,62.0,-100.00,NW,308,5.0,9.0,95,0.00,,,0.00,209.000000,,2013-08-29 17:13:00,
2013-08-29 10:22:00,63.0,62.0,-100.00,NW,308,5.0,9.0,95,0.00,,,0.00,209.000000,,2013-08-29 17:22:00,
2013-08-29 10:52:00,65.0,60.0,-100.00,WNW,293,6.0,11.0,85,0.00,,,0.00,362.000000,,2013-08-29 17:52:00,
2013-08-29 11:01:00,65.0,60.0,-100.00,WNW,293,6.0,11.0,85,0.00,,,0.00,362.000000,,2013-08-29 18:01:00,
2013-08-29 11:12:00,65.0,60.0,-100.00,WNW,293,6.0,11.0,85,0.00,,,0.00,362.000000,,2013-08-29 18:12:00,
2013-08-29 11:21:00,65.0,60.0,-100.00,WNW,293,6.0,11.0,85,0.00,,,0.00,362.000000,,2013-08-29 18:21:00,
2013-08-29 11:52:00,70.0,61.0,-100.00,WNW,285,7.0,14.0,74,0.00,,,0.00,610.000000,,2013-08-29 18:52:00,
2013-08-29 12:01:00,70.0,61.0,-100.00,WNW,285,7.0,14.0,74,0.00,,,0.00,610.000000,,2013-08-29 19:01:00,
2013-08-29 12:11:00,70.0,61.0,-100.00,WNW,285,7.0,14.0,74,0.00,,,0.00,610.000000,,2013-08-29 19:11:00,
2013-08-29 12:22:00,70.0,61.0,-100.00,WNW,285,7.0,14.0,74,0.00,,,0.00,610.000000,,2013-08-29 19:22:00,
2013-08-29 12:53:00,71.0,61.0,-100.00,WNW,300,9.0,15.0,71,0.00,,,0.00,851.000000,,2013-08-29 19:53:00,
2013-08-29 13:02:00,71.0,61.0,-100.00,WNW,300,9.0,15.0,71,0.00,,,0.00,851.000000,,2013-08-29 20:02:00,
2013-08-29 13:12:00,71.0,61.0,-100.00,WNW,300,9.0,15.0,71,0.00,,,0.00,851.000000,,2013-08-29 20:12:00,
2013-08-29 13:21:00,71.0,61.0,-100.00,WNW,300,9.0,15.0,71,0.00,,,0.00,851.000000,,2013-08-29 20:21:00,
2013-08-29 13:52:00,75.0,60.0,-100.00,WNW,284,10.0,16.0,60,0.00,,,0.00,876.000000,,2013-08-29 20:52:00,
2013-08-29 14:01:00,75.0,60.0,-100.00,WNW,284,10.0,16.0,60,0.00,,,0.00,876.000000,,2013-08-29 21:01:00,
2013-08-29 14:12:00,75.0,60.0,-100.00,WNW,284,10.0,16.0,60,0.00,,,0.00,876.000000,,2013-08-29 21:12:00,
2013-08-29 14:22:00,75.0,60.0,-100.00,WNW,284,10.0,16.0,60,0.00,,,0.00,876.000000,,2013-08-29 21:22:00,
2013-08-29 14:54:00,76.0,59.0,-100.00,WNW,294,10.0,18.0,56,0.00,,,0.00,862.000000,,2013-08-29 21:54:00,
2013-08-29 15:04:00,76.0,59.0,-100.00,WNW,294,10.0,18.0,56,0.00,,,0.00,862.000000,,2013-08-29 22:04:00,
2013-08-29 15:14:00,76.0,59.0,-100.00,WNW,294,10.0,18.0,56,0.00,,,0.00,862.000000,,2013-08-29 22:14:00,
2013-08-29 15:24:00,76.0,59.0,-100.00,WNW,294,10.0,18.0,56,0.00,,,0.00,862.000000,,2013-08-29 22:24:00,
2013-08-29 16:12:00,79.0,60.0,-100.00,West,280,6.0,17.0,52,0.00,,,0.00,793.000000,,2013-08-29 23:12:00,
2013-08-29 16:53:00,78.0,61.0,-100.00,WNW,282,5.0,15.0,56,-99.99,,,0.00,668.000000,,2013-08-29 23:53:00,
2013-08-29 17:02:00,78.0,61.0,-100.00,WNW,282,5.0,15.0,56,-99.99,,,0.00,668.000000,,2013-08-30 00:02:00,
2013-08-29 17:12:00,78.0,61.0,-100.00,WNW,282,5.0,15.0,56,-99.99,,,0.00,668.000000,,2013-08-30 00:12:00,
2013-08-29 17:21:00,78.0,61.0,-100.00,WNW,282,5.0,15.0,56,-99.99,,,0.00,668.000000,,2013-08-30 00:21:00,
2013-08-29 17:52:00,73.0,60.0,-100.00,WNW,299,6.0,15.0,64,-99.99,,,0.00,499.000000,,2013-08-30 00:52:00,
2013-08-29 18:01:00,73.0,60.0,-100.00,WNW,299,6.0,15.0,64,-99.99,,,0.00,499.000000,,2013-08-30 01:01:00,
2013-08-29 18:12:00,73.0,60.0,-100.00,WNW,299,6.0,15.0,64,-99.99,,,0.00,499.000000,,2013-08-30 01:12:00,
2013-08-29 18:21:00,73.0,60.0,-100.00,WNW,299,6.0,15.0,64,-99.99,,,0.00,499.000000,,2013-08-30 01:21:00,
2013-08-29 18:52:00,67.0,60.0,-100.00,WNW,303,12.0,21.0,77,0.00,,,0.00,302.000000,,2013-08-30 01:52:00,
2013-08-29 19:02:00,67.0,60.0,-100.00,WNW,303,12.0,21.0,77,0.00,,,0.00,302.000000,,2013-08-30 02:02:00,
2013-08-29 19:11:00,67.0,60.0,-100.00,WNW,303,12.0,21.0,77,0.00,,,0.00,302.000000,,2013-08-30 02:11:00,
2013-08-29 19:21:00,67.0,60.0,-100.00,WNW,303,12.0,21.0,77,0.00,,,0.00,302.000000,,2013-08-30 02:21:00,
2013-08-29 19:52:00,62.0,60.0,-100.00,WNW,303,12.0,22.0,94,0.00,,,0.00,47.000000,,2013-08-30 02:52:00,
2013-08-29 20:02:00,62.0,60.0,-100.00,WNW,303,12.0,22.0,94,0.00,,,0.00,47.000000,,2013-08-30 03:02:00,
2013-08-29 20:12:00,62.0,60.0,-100.00,WNW,303,12.0,22.0,94,0.00,,,0.00,47.000000,,2013-08-30 03:12:00,
2013-08-29 20:22:00,62.0,60.0,-100.00,WNW,303,12.0,22.0,94,0.00,,,0.00,47.000000,,2013-08-30 03:22:00,
2013-08-29 20:55:00,61.0,60.0,-100.00,NW,304,13.0,25.0,97,0.00,,,0.00,2.000000,,2013-08-30 03:55:00,
2013-08-29 21:04:00,61.0,60.0,-100.00,NW,304,13.0,25.0,97,0.00,,,0.00,2.000000,,2013-08-30 04:04:00,
2013-08-29 21:14:00,61.0,60.0,-100.00,NW,304,13.0,25.0,97,0.00,,,0.00,2.000000,,2013-08-30 04:14:00,
2013-08-29 21:24:00,61.0,60.0,-100.00,NW,304,13.0,25.0,97,0.00,,,0.00,2.000000,,2013-08-30 04:24:00,
2013-08-29 21:54:00,61.0,60.0,-100.00,NW,309,11.0,26.0,98,0.00,,,0.00,0.000000,,2013-08-30 04:54:00,
2013-08-29 22:03:00,61.0,60.0,-100.00,NW,309,11.0,26.0,98,0.00,,,0.00,0.000000,,2013-08-30 05:03:00,
2013-08-29 22:12:00,61.0,60.0,-100.00,NW,309,11.0,26.0,98,0.00,,,0.00,0.000000,,2013-08-30 05:12:00,
2013-08-29 22:23:00,61.0,60.0,-100.00,NW,309,11.0,26.0,98,0.00,,,0.00,0.000000,,2013-08-30 05:23:00,
2013-08-29 22:52:00,60.0,60.0,-100.00,NNW,333,6.0,19.0,99,0.00,,,0.00,0.000000,,2013-08-30 05:52:00,
2013-08-29 23:02:00,60.0,60.0,-100.00,NNW,333,6.0,19.0,99,0.00,,,0.00,0.000000,,2013-08-30 06:02:00,
2013-08-29 23:12:00,60.0,60.0,-100.00,NNW,333,6.0,19.0,99,0.00,,,0.00,0.000000,,2013-08-30 06:12:00,
2013-08-29 23:22:00,60.0,60.0,-100.00,NNW,333,6.0,19.0,99,0.00,,,0.00,0.000000,,2013-08-30 06:22:00,
2013-08-29 23:53:00,61.0,60.0,-100.00,WNW,299,10.0,18.0,97,0.00,,,0.00,0.000000,,2013-08-30 06:53:00,